Time;durP1;ratioP1;P1;durP2;ratioP2;P2;SDS_P1;SDS_P2;PMS_P1;PMS_P2;Temp;Humidity;BMP_temperature;BMP_pressure;BME280_temperature;BME280_humidity;BME280_pressure;Samples;Min_cycle;Max_cycle;Signal;HPM_P1;HPM_P2
2022/03/06 00:01:19;;;;;;;;;;;-1.50;99.90;;;-3.50;89.92;101871.09;2565909;30;136867;-41
2022/03/06 00:03:50;;;;;;;;;;;-1.50;99.90;;;-3.50;90.17;101881.78;2568631;30;138135;-41
2022/03/06 00:06:17;;;;;;;;;;;-1.60;99.90;;;-3.53;89.86;101884.63;2568705;30;136892;-41
2022/03/06 00:08:45;;;;;;;;;;;-1.60;99.90;;;-3.55;89.62;101883.88;2566790;30;138160;-41
2022/03/06 00:11:13;;;;;;;;;;;-1.60;99.90;;;-3.57;89.85;101891.13;2568538;30;136787;-41
2022/03/06 00:13:40;;;;;;;;;;;-1.60;99.90;;;-3.65;90.50;101887.13;2567983;30;139083;-41
2022/03/06 00:16:07;;;;;;;;;;;-1.70;99.90;;;-3.68;90.43;101884.66;2568911;30;137154;-41
2022/03/06 00:18:37;;;;;;;;;;;-1.70;99.90;;;-3.65;91.08;101887.13;2568399;30;137029;-41
2022/03/06 00:21:05;;;;;;;;;;;-1.70;99.90;;;-3.66;91.52;101879.19;2567383;30;137808;-41
2022/03/06 00:23:35;;;;;;;;;;;-1.70;99.90;;;-3.65;91.96;101884.44;2569309;30;139159;-41
2022/03/06 00:26:03;;;;;;;;;;;-1.70;99.90;;;-3.64;92.73;101880.81;2568211;30;137894;-40
2022/03/06 00:28:30;;;;;;;;;;;-1.70;99.90;;;-3.63;93.14;101879.00;2568155;30;139376;-40
2022/03/06 00:30:58;;;;;;;;;;;-1.70;99.90;;;-3.63;93.45;101879.88;2568209;30;137206;-41
2022/03/06 00:33:25;;;;;;;;;;;-1.70;99.90;;;-3.70;93.41;101886.53;2569002;30;138219;-40
2022/03/06 00:35:53;;;;;;;;;;;-1.80;99.90;;;-3.73;94.23;101884.03;2565890;30;137287;-40
2022/03/06 00:38:20;;;;;;;;;;;-1.80;99.90;;;-3.74;94.54;101886.81;2567860;30;138004;-41
2022/03/06 00:40:47;;;;;;;;;;;-1.80;99.90;;;-3.80;95.29;101893.38;2567383;30;138029;-40
2022/03/06 00:43:18;;;;;;;;;;;-1.90;99.90;;;-3.80;95.50;101888.03;2568517;30;139105;-41
2022/03/06 00:45:46;;;;;;;;;;;-1.90;99.90;;;-3.86;95.77;101880.41;2568804;30;137025;-41
2022/03/06 00:48:13;;;;;;;;;;;-1.90;99.90;;;-3.80;96.39;101888.03;2567581;30;138595;-41
2022/03/06 00:50:41;;;;;;;;;;;-1.90;99.90;;;-3.87;96.22;101889.34;2568069;30;137281;-41
2022/03/06 00:53:09;;;;;;;;;;;-1.90;99.90;;;-3.85;96.66;101898.97;2567851;30;138121;-41
2022/03/06 00:55:37;;;;;;;;;;;-1.90;99.90;;;-3.85;95.98;101896.31;2568961;30;137291;-41
2022/03/06 00:58:09;;;;;;;;;;;-2.00;99.90;;;-3.91;95.79;101902.88;2568531;30;139107;-41
2022/03/06 01:00:41;;;;;;;;;;;-2.00;99.90;;;-3.97;95.40;101910.38;2568810;30;137792;-41
2022/03/06 01:03:11;;;;;;;;;;;-2.00;99.90;;;-4.00;95.15;101907.91;2567482;30;137341;-41
2022/03/06 01:05:39;;;;;;;;;;;-2.10;99.90;;;-4.03;95.32;101908.09;2569780;30;136666;-40
2022/03/06 01:08:07;;;;;;;;;;;-2.10;99.90;;;-4.21;95.38;101874.44;2575514;30;139009;-40
2022/03/06 01:10:39;;;;;;;;;;;-2.10;99.90;;;-4.00;95.61;101913.22;2572715;30;136946;-40
2022/03/06 01:13:08;;;;;;;;;;;-2.10;99.90;;;-4.04;95.50;101907.22;2569754;30;138462;-40
2022/03/06 01:15:36;;;;;;;;;;;-2.10;99.90;;;-4.08;95.21;101914.56;2571180;30;137317;-40
2022/03/06 01:18:06;;;;;;;;;;;-2.20;99.90;;;-4.11;95.25;101917.41;2571471;30;138170;-40
2022/03/06 01:20:38;;;;;;;;;;;-2.20;99.90;;;-4.12;95.79;101914.81;2568657;30;139523;-40
2022/03/06 01:23:07;;;;;;;;;;;-2.20;99.90;;;-4.13;95.73;101915.75;2570386;30;138323;-40
2022/03/06 01:25:35;;;;;;;;;;;-2.20;99.90;;;-4.16;95.94;101911.44;2570909;30;137187;-44
2022/03/06 01:28:03;;;;;;;;;;;-2.20;99.90;;;-4.16;96.64;101919.44;2571281;30;137222;-40
2022/03/06 01:30:33;;;;;;;;;;;-2.30;99.90;;;-4.25;96.02;101920.00;2569580;30;137022;-41
2022/03/06 01:33:01;;;;;;;;;;;-2.30;99.90;;;-4.25;95.95;101928.00;2571558;30;138252;-42
2022/03/06 01:35:28;;;;;;;;;;;-2.30;99.90;;;-4.29;96.12;101918.47;2571529;30;137020;-40
2022/03/06 01:37:56;;;;;;;;;;;-2.40;99.90;;;-4.36;95.72;101929.47;2567946;30;138598;-40
2022/03/06 01:40:23;;;;;;;;;;;-2.40;99.90;;;-4.38;95.63;101926.00;2571842;30;137029;-41
2022/03/06 01:42:51;;;;;;;;;;;-2.40;99.90;;;-4.39;95.87;101921.63;2570935;30;137274;-40
2022/03/06 01:45:23;;;;;;;;;;;-2.40;99.90;;;-4.44;96.13;101925.53;2567204;30;138144;-40
2022/03/06 01:47:55;;;;;;;;;;;-2.50;99.90;;;-4.50;95.95;101921.41;2568412;30;138316;-40
2022/03/06 01:50:28;;;;;;;;;;;-2.50;99.90;;;-4.50;96.24;101921.41;2569754;30;137180;-41
2022/03/06 01:52:57;;;;;;;;;;;-2.60;99.90;;;-4.52;96.60;101921.47;2569603;30;138071;-41
2022/03/06 01:55:26;;;;;;;;;;;-2.60;99.90;;;-4.63;96.62;101915.91;2569360;30;137151;-40
2022/03/06 01:57:56;;;;;;;;;;;-2.60;99.90;;;-4.59;96.66;101927.25;2570173;30;138191;-40
2022/03/06 02:00:27;;;;;;;;;;;-2.60;99.90;;;-4.63;97.32;101931.88;2570107;30;138393;-39
2022/03/06 02:02:55;;;;;;;;;;;-2.70;99.90;;;-4.63;97.47;101927.44;2570275;30;137311;-41
2022/03/06 02:05:23;;;;;;;;;;;-2.70;99.90;;;-4.64;97.60;101932.81;2570870;30;137358;-43
2022/03/06 02:07:50;;;;;;;;;;;-2.70;99.90;;;-4.65;97.74;101933.78;2566842;30;137296;-40
2022/03/06 02:10:18;;;;;;;;;;;-2.70;99.90;;;-4.64;97.94;101933.69;2569894;30;136887;-39
2022/03/06 02:12:46;;;;;;;;;;;-2.70;99.90;;;-4.67;97.84;101938.34;2570923;30;139352;-41
2022/03/06 02:15:15;;;;;;;;;;;-2.70;99.90;;;-4.71;97.85;101936.78;2569330;30;137825;-40
2022/03/06 02:17:45;;;;;;;;;;;-2.80;99.90;;;-4.72;98.25;101940.41;2568055;30;138376;-40
2022/03/06 02:20:18;;;;;;;;;;;-2.80;99.90;;;-4.72;98.32;101932.41;2566016;30;137198;-40
2022/03/06 02:22:48;;;;;;;;;;;-2.80;99.90;;;-4.72;98.46;101943.06;2567291;30;139138;-40
2022/03/06 02:25:28;;;;;;;;;;;-2.70;99.90;;;-4.72;98.43;101937.72;2569589;30;137625;-39
2022/03/06 02:28:00;;;;;;;;;;;-2.70;99.90;;;-4.71;98.42;101934.13;2568385;30;139119;-39
2022/03/06 02:30:30;;;;;;;;;;;-2.80;99.90;;;-4.73;98.48;101925.38;2571880;30;136977;-42
2022/03/06 02:33:02;;;;;;;;;;;-2.80;99.90;;;-4.73;98.50;101930.69;2567472;30;138470;-40
2022/03/06 02:35:30;;;;;;;;;;;-2.80;99.90;;;-4.72;98.46;101925.25;2570245;30;137559;-40
2022/03/06 02:37:58;;;;;;;;;;;-2.80;99.90;;;-4.75;98.25;101919.25;2569645;30;138974;-40
2022/03/06 02:40:26;;;;;;;;;;;-2.80;99.90;;;-4.66;98.66;101927.56;2569264;30;137971;-40
2022/03/06 02:42:54;;;;;;;;;;;-2.70;99.90;;;-4.66;99.13;101916.91;2570965;30;138176;-39
2022/03/06 02:45:25;;;;;;;;;;;-2.80;99.90;;;-4.64;98.88;101920.38;2567676;30;137133;-39
2022/03/06 02:47:54;;;;;;;;;;;-2.70;99.90;;;-4.62;98.88;101923.81;2569601;30;137335;-40
2022/03/06 02:50:26;;;;;;;;;;;-2.70;99.90;;;-4.59;99.35;101917.44;2569093;30;137051;-39
2022/03/06 02:52:55;;;;;;;;;;;-2.70;99.90;;;-4.60;99.15;101918.38;2569862;30;138289;-40
2022/03/06 02:55:22;;;;;;;;;;;-2.70;99.90;;;-4.62;99.33;101918.50;2569271;30;136742;-40
2022/03/06 02:57:50;;;;;;;;;;;-2.70;99.90;;;-4.67;99.62;101893.06;2571295;30;139013;-39
2022/03/06 03:00:20;;;;;;;;;;;-2.60;99.90;;;-4.52;99.52;101918.81;2566204;30;138247;-39
2022/03/06 03:02:49;;;;;;;;;;;-2.60;99.90;;;-4.54;99.89;101919.84;2570075;30;138461;-40
2022/03/06 03:05:17;;;;;;;;;;;-2.60;99.90;;;-4.56;100.00;101921.75;2570075;30;137806;-40
2022/03/06 03:07:48;;;;;;;;;;;-2.60;99.90;;;-4.60;100.00;101922.88;2568877;30;138259;-39
2022/03/06 03:10:22;;;;;;;;;;;-2.70;99.90;;;-4.62;100.00;101923.81;2569742;30;137936;-42
2022/03/06 03:12:50;;;;;;;;;;;-2.70;99.90;;;-4.61;100.00;101919.34;2569395;30;137180;-42
2022/03/06 03:15:18;;;;;;;;;;;-2.70;99.90;;;-4.63;100.00;101921.22;2569994;30;137247;-41
2022/03/06 03:17:46;;;;;;;;;;;-2.70;99.90;;;-4.67;99.94;101925.00;2569488;30;137321;-39
2022/03/06 03:20:14;;;;;;;;;;;-2.70;99.90;;;-4.72;99.35;101933.25;2571198;30;136749;-40
2022/03/06 03:22:42;;;;;;;;;;;-2.80;99.90;;;-4.73;99.47;101928.03;2570158;30;138852;-40
2022/03/06 03:25:11;;;;;;;;;;;-2.80;99.90;;;-4.74;99.51;101928.97;2567011;30;137639;-40
2022/03/06 03:27:38;;;;;;;;;;;-2.80;99.90;;;-4.77;99.22;101928.19;2570263;30;139050;-41
2022/03/06 03:30:09;;;;;;;;;;;-2.80;99.90;;;-4.77;99.27;101932.66;2570417;30;137903;-40
2022/03/06 03:32:38;;;;;;;;;;;-2.80;99.90;;;-4.74;99.68;101926.31;2569928;30;137712;-40
2022/03/06 03:35:07;;;;;;;;;;;-2.80;99.90;;;-4.73;99.93;101933.34;2567286;30;137981;-40
2022/03/06 03:37:34;;;;;;;;;;;-2.80;99.90;;;-4.72;99.92;101937.72;2571217;30;138208;-39
2022/03/06 03:40:06;;;;;;;;;;;-2.80;99.90;;;-4.72;100.00;101938.56;2571271;30;137891;-43
2022/03/06 03:42:33;;;;;;;;;;;-2.80;99.90;;;-4.70;99.82;101938.50;2571280;30;138118;-42
2022/03/06 03:45:03;;;;;;;;;;;-2.80;99.90;;;-4.68;100.00;101939.28;2567265;30;137229;-40
2022/03/06 03:47:31;;;;;;;;;;;-2.70;99.90;;;-4.67;100.00;101943.66;2571128;30;138366;-39
2022/03/06 03:49:58;;;;;;;;;;;-2.70;99.90;;;-4.68;100.00;101939.28;2570175;30;138556;-40
2022/03/06 03:52:26;;;;;;;;;;;-2.70;99.90;;;-4.70;100.00;101935.84;2568953;30;138447;-39
2022/03/06 03:54:53;;;;;;;;;;;-2.70;99.90;;;-4.69;100.00;101948.22;2570390;30;137397;-40
2022/03/06 03:57:23;;;;;;;;;;;-2.80;99.90;;;-4.72;100.00;101935.06;2568373;30;139182;-40
2022/03/06 03:59:52;;;;;;;;;;;-2.80;99.90;;;-4.72;100.00;101937.72;2569544;30;137822;-39
2022/03/06 04:02:20;;;;;;;;;;;-2.80;99.90;;;-4.77;100.00;101936.19;2569441;30;139218;-40
2022/03/06 04:04:49;;;;;;;;;;;-2.80;99.90;;;-4.74;100.00;101945.78;2570537;30;137123;-40
2022/03/06 04:07:16;;;;;;;;;;;-2.80;99.90;;;-4.86;100.00;101938.50;2570576;30;137822;-40
2022/03/06 04:09:44;;;;;;;;;;;-2.90;99.90;;;-4.84;100.00;101955.25;2570333;30;137307;-39
2022/03/06 04:12:11;;;;;;;;;;;-2.90;99.90;;;-4.85;100.00;101949.03;2572059;30;138289;-40
2022/03/06 04:14:38;;;;;;;;;;;-2.90;99.90;;;-4.82;100.00;101950.69;2570162;30;137059;-41
2022/03/06 04:17:06;;;;;;;;;;;-2.90;99.90;;;-4.78;100.00;101954.91;2570942;30;138283;-39
2022/03/06 04:19:33;;;;;;;;;;;-2.90;99.90;;;-4.77;100.00;101948.63;2570981;30;137250;-40
2022/03/06 04:22:01;;;;;;;;;;;-2.80;99.90;;;-4.77;100.00;101951.28;2569148;30;138278;-42
2022/03/06 04:24:28;;;;;;;;;;;-2.90;99.90;;;-4.78;100.00;101953.09;2571400;30;136973;-40
2022/03/06 04:26:55;;;;;;;;;;;-2.80;99.90;;;-4.79;100.00;101959.34;2570643;30;138195;-40
2022/03/06 04:29:23;;;;;;;;;;;-2.80;99.90;;;-4.78;100.00;101960.22;2569544;30;137808;-40
2022/03/06 04:31:50;;;;;;;;;;;-2.90;99.90;;;-4.79;100.00;101958.50;2568431;30;139082;-40
2022/03/06 04:34:17;;;;;;;;;;;-2.80;99.90;;;-4.77;100.00;101962.81;2569732;30;137316;-42
2022/03/06 04:36:45;;;;;;;;;;;-2.90;99.90;;;-4.79;100.00;101970.00;2569967;30;138379;-40
2022/03/06 04:39:12;;;;;;;;;;;-2.90;99.90;;;-4.78;100.00;101971.72;2568839;30;136849;-40
2022/03/06 04:41:40;;;;;;;;;;;-2.80;99.90;;;-4.73;100.00;101970.63;2568598;30;136866;-39
2022/03/06 04:44:07;;;;;;;;;;;-2.80;99.90;;;-4.73;100.00;101973.31;2571208;30;137076;-39
2022/03/06 04:46:35;;;;;;;;;;;-2.80;99.90;;;-4.65;100.00;101981.72;2571646;30;137583;-40
2022/03/06 04:49:02;;;;;;;;;;;-2.80;99.90;;;-4.64;100.00;101975.44;2571193;30;137053;-40
2022/03/06 04:51:30;;;;;;;;;;;-2.70;99.90;;;-4.56;100.00;101983.03;2567542;30;138289;-40
2022/03/06 04:53:57;;;;;;;;;;;-2.70;99.90;;;-4.56;100.00;101977.69;2570812;30;137916;-40
2022/03/06 04:56:24;;;;;;;;;;;-2.70;99.90;;;-4.55;100.00;101982.91;2571117;30;138297;-40
2022/03/06 04:58:52;;;;;;;;;;;-2.60;99.90;;;-4.54;100.00;101978.47;2569583;30;136808;-40
2022/03/06 05:01:19;;;;;;;;;;;-2.60;99.90;;;-4.58;100.00;101972.44;2571032;30;138449;-40
2022/03/06 05:03:49;;;;;;;;;;;-2.60;99.90;;;-4.62;100.00;101977.09;2570983;30;137100;-40
2022/03/06 05:06:16;;;;;;;;;;;-2.70;99.90;;;-4.65;100.00;101982.56;2567258;30;138217;-39
2022/03/06 05:08:44;;;;;;;;;;;-2.70;99.90;;;-4.72;100.00;101975.84;2570778;30;137069;-39
2022/03/06 05:11:11;;;;;;;;;;;-2.80;99.90;;;-4.78;100.00;101969.06;2570304;30;138195;-39
2022/03/06 05:13:39;;;;;;;;;;;-2.80;99.90;;;-4.80;100.00;101970.94;2568750;30;136746;-39
2022/03/06 05:16:06;;;;;;;;;;;-2.80;99.90;;;-4.82;100.00;101966.66;2567587;30;138610;-39
2022/03/06 05:18:33;;;;;;;;;;;-2.90;99.90;;;-4.86;100.00;101975.78;2569422;30;137884;-40
2022/03/06 05:21:01;;;;;;;;;;;-2.90;99.90;;;-4.92;100.00;101964.50;2570935;30;138318;-40
2022/03/06 05:23:29;;;;;;;;;;;-3.00;99.90;;;-4.95;100.00;101969.97;2570262;30;137205;-40
2022/03/06 05:25:57;;;;;;;;;;;-3.00;99.90;;;-4.94;100.00;101977.03;2569172;30;137866;-40
2022/03/06 05:28:27;;;;;;;;;;;-3.00;99.90;;;-4.96;100.00;101980.72;2568797;30;137139;-40
2022/03/06 05:30:54;;;;;;;;;;;-3.00;99.90;;;-4.88;100.00;101978.50;2571249;30;137221;-40
2022/03/06 05:33:22;;;;;;;;;;;-3.00;99.90;;;-4.89;100.00;101978.59;2568423;30;137176;-40
2022/03/06 05:35:49;;;;;;;;;;;-3.00;99.90;;;-4.93;100.00;101976.09;2570695;30;137144;-40
2022/03/06 05:38:17;;;;;;;;;;;-3.00;99.90;;;-4.94;100.00;101978.84;2571135;30;137083;-39
2022/03/06 05:40:44;;;;;;;;;;;-3.00;99.90;;;-4.97;100.00;101982.53;2566874;30;137842;-40
2022/03/06 05:43:11;;;;;;;;;;;-3.00;99.90;;;-4.95;100.00;101982.44;2569880;30;136769;-39
2022/03/06 05:45:39;;;;;;;;;;;-3.00;99.90;;;-5.01;100.00;101985.44;2570315;30;138239;-40
2022/03/06 05:48:06;;;;;;;;;;;-3.10;99.90;;;-5.09;100.00;101991.19;2570699;30;137793;-40
2022/03/06 05:50:34;;;;;;;;;;;-3.10;99.90;;;-5.16;100.00;101992.44;2569167;30;139194;-40
2022/03/06 05:53:01;;;;;;;;;;;-3.20;99.90;;;-5.17;100.00;101996.91;2568604;30;137134;-39
2022/03/06 05:55:30;;;;;;;;;;;-3.20;99.90;;;-5.18;100.00;101999.63;2569930;30;138298;-41
2022/03/06 05:57:57;;;;;;;;;;;-3.20;99.90;;;-5.21;100.00;102000.66;2569042;30;137779;-41
2022/03/06 06:00:24;;;;;;;;;;;-3.20;99.90;;;-5.25;100.00;102005.28;2569731;30;138273;-39
2022/03/06 06:02:52;;;;;;;;;;;-3.30;99.90;;;-5.26;100.00;102011.53;2570157;30;137135;-40
2022/03/06 06:05:19;;;;;;;;;;;-3.30;99.90;;;-5.31;100.00;102012.72;2569966;30;138280;-41
2022/03/06 06:07:48;;;;;;;;;;;-3.30;99.90;;;-5.27;100.00;102023.13;2571643;30;136970;-40
2022/03/06 06:10:16;;;;;;;;;;;-3.30;99.90;;;-5.28;100.00;102031.22;2568890;30;139068;-40
2022/03/06 06:12:43;;;;;;;;;;;-3.30;99.90;;;-5.25;100.00;102039.03;2570854;30;136729;-40
2022/03/06 06:15:11;;;;;;;;;;;-3.40;99.90;;;-5.20;100.00;102044.97;2567193;30;139265;-40
2022/03/06 06:17:39;;;;;;;;;;;-3.30;99.90;;;-5.04;100.00;102050.34;2569061;30;137394;-39
2022/03/06 06:20:07;;;;;;;;;;;-3.20;99.90;;;-4.98;100.00;102052.69;2569601;30;139055;-41
2022/03/06 06:22:35;;;;;;;;;;;-3.20;99.90;;;-4.77;100.00;102053.38;2569313;30;138146;-40
2022/03/06 06:25:04;;;;;;;;;;;-3.00;99.90;;;-4.56;100.00;102057.59;2570039;30;139271;-40
2022/03/06 06:27:31;;;;;;;;;;;-2.80;99.90;;;-4.54;100.00;102056.56;2570749;30;136838;-40
2022/03/06 06:29:59;;;;;;;;;;;-2.70;99.90;;;-4.55;100.00;102052.19;2569598;30;138579;-39
2022/03/06 06:32:26;;;;;;;;;;;-2.70;99.90;;;-4.46;100.00;102050.81;2571251;30;137226;-39
2022/03/06 06:34:53;;;;;;;;;;;-2.60;99.90;;;-4.34;100.00;102060.81;2569030;30;139002;-40
2022/03/06 06:37:21;;;;;;;;;;;-2.50;99.90;;;-4.24;100.00;102054.97;2569824;30;137232;-39
2022/03/06 06:39:48;;;;;;;;;;;-2.50;99.90;;;-4.16;100.00;102066.06;2570253;30;138356;-39
2022/03/06 06:42:15;;;;;;;;;;;-2.40;99.90;;;-4.08;100.00;102061.19;2569175;30;137304;-40
2022/03/06 06:44:43;;;;;;;;;;;-2.30;99.90;;;-4.01;100.00;102068.81;2571589;30;138399;-40
2022/03/06 06:47:12;;;;;;;;;;;-2.20;99.90;;;-3.95;100.00;102076.47;2570178;30;137896;-40
2022/03/06 06:49:40;;;;;;;;;;;-2.20;99.90;;;-3.84;100.00;102073.19;2568922;30;139240;-40
2022/03/06 06:52:07;;;;;;;;;;;-2.10;99.90;;;-3.83;100.00;102081.13;2568291;30;137165;-40
2022/03/06 06:54:34;;;;;;;;;;;-2.00;99.90;;;-3.81;100.00;102078.34;2569670;30;137880;-40
2022/03/06 06:57:02;;;;;;;;;;;-2.00;99.90;;;-3.74;100.00;102087.72;2571053;30;137074;-41
2022/03/06 06:59:30;;;;;;;;;;;-2.00;99.90;;;-3.67;100.00;102090.91;2567528;30;138095;-40
2022/03/06 07:01:57;;;;;;;;;;;-1.90;99.90;;;-3.59;100.00;102090.47;2571826;30;137538;-40
2022/03/06 07:04:25;;;;;;;;;;;-1.80;99.90;;;-3.54;100.00;102083.06;2569492;30;138522;-40
2022/03/06 07:10:34;;;;;;;;;;;-1.80;99.90;;;-3.46;100.00;102094.13;2566172;30;137831;-41
2022/03/06 07:13:02;;;;;;;;;;;-1.70;99.90;;;-3.47;100.00;102097.75;2567320;30;137412;-41
2022/03/06 07:15:32;;;;;;;;;;;-1.70;99.90;;;-3.45;100.00;102089.66;2566550;30;137384;-41
2022/03/06 07:18:00;;;;;;;;;;;-1.70;99.90;;;-3.38;100.00;102105.25;2566411;30;137725;-41
2022/03/06 07:20:29;;;;;;;;;;;-1.60;99.90;;;-3.33;100.00;102103.16;2568235;30;138081;-41
2022/03/06 07:22:56;;;;;;;;;;;-1.60;99.90;;;-3.23;100.00;102100.81;2567486;30;137472;-41
2022/03/06 07:25:24;;;;;;;;;;;-1.50;99.90;;;-3.20;100.00;102097.94;2567625;30;136988;-41
2022/03/06 07:27:53;;;;;;;;;;;-1.50;99.90;;;-3.20;100.00;102091.72;2569025;30;138123;-41
2022/03/06 07:30:21;;;;;;;;;;;-1.40;99.90;;;-3.16;100.00;102106.66;2568169;30;137737;-41
2022/03/06 07:32:51;;;;;;;;;;;-1.40;99.90;;;-3.15;100.00;102104.81;2567727;30;138312;-41
2022/03/06 07:35:20;;;;;;;;;;;-1.40;99.90;;;-3.05;100.00;102112.19;2568310;30;138190;-41
2022/03/06 07:37:48;;;;;;;;;;;-1.30;99.90;;;-2.92;100.00;102108.78;2565854;30;137030;-41
2022/03/06 07:40:18;;;;;;;;;;;-1.30;99.90;;;-2.79;100.00;102117.78;2566260;30;137203;-41
2022/03/06 07:42:46;;;;;;;;;;;-1.10;99.90;;;-2.66;100.00;102114.34;2567307;30;137462;-41
2022/03/06 07:45:14;;;;;;;;;;;-1.10;99.90;;;-2.48;100.00;102113.22;2567899;30;136769;-41
2022/03/06 07:47:42;;;;;;;;;;;-0.90;99.90;;;-2.38;100.00;102118.00;2568739;30;137483;-41
2022/03/06 07:50:12;;;;;;;;;;;-0.80;99.90;;;-2.15;99.54;102126.38;2565511;30;136920;-41
2022/03/06 07:52:40;;;;;;;;;;;-0.60;99.90;;;-1.96;99.02;102124.25;2567151;30;138545;-41
2022/03/06 07:55:08;;;;;;;;;;;-0.50;99.90;;;-1.76;98.55;102124.78;2567920;30;137322;-41
2022/03/06 07:57:35;;;;;;;;;;;-0.30;99.90;;;-1.64;97.08;102132.00;2567321;30;138347;-41
2022/03/06 08:00:10;;;;;;;;;;;-0.10;99.90;;;-1.54;96.11;102131.44;2567621;30;137259;-42
2022/03/06 08:02:38;;;;;;;;;;;0.00;99.90;;;-1.45;96.21;102136.16;2567802;30;137867;-41
2022/03/06 08:05:07;;;;;;;;;;;0.10;99.90;;;-1.33;94.68;102137.19;2566604;30;137199;-41
2022/03/06 08:07:35;;;;;;;;;;;0.20;99.90;;;-1.28;95.42;102124.34;2566662;30;139028;-41
2022/03/06 08:10:08;;;;;;;;;;;0.30;99.90;;;-1.14;94.65;102135.94;2568120;30;136643;-41
2022/03/06 08:12:35;;;;;;;;;;;0.40;99.90;;;-1.06;93.63;102134.47;2566929;30;139046;-41
2022/03/06 08:15:04;;;;;;;;;;;0.50;99.90;;;-0.98;92.30;102136.63;2567932;30;137846;-41
2022/03/06 08:17:31;;;;;;;;;;;0.60;99.90;;;-0.88;92.69;102131.50;2569550;30;138516;-41
2022/03/06 08:19:58;;;;;;;;;;;0.70;99.90;;;-0.81;91.15;102131.94;2567742;30;137300;-41
2022/03/06 08:22:26;;;;;;;;;;;0.80;99.90;;;-0.69;90.98;102138.28;2568032;30;139306;-42
2022/03/06 08:24:56;;;;;;;;;;;0.90;99.90;;;-0.62;90.41;102137.75;2569640;30;137104;-41
2022/03/06 08:27:24;;;;;;;;;;;1.00;99.90;;;-0.47;90.46;102135.81;2568472;30;137893;-41
2022/03/06 08:29:51;;;;;;;;;;;1.10;99.90;;;-0.34;90.09;102133.13;2567623;30;137195;-41
2022/03/06 08:32:18;;;;;;;;;;;1.20;99.90;;;-0.15;90.38;102139.84;2569724;30;139300;-41
2022/03/06 08:34:46;;;;;;;;;;;1.40;99.90;;;-0.03;89.63;102144.34;2568913;30;137103;-41
2022/03/06 08:37:14;;;;;;;;;;;1.50;99.90;;;0.04;88.26;102139.41;2568827;30;138429;-41
2022/03/06 08:39:41;;;;;;;;;;;1.60;99.90;;;0.13;87.94;102144.09;2568621;30;136764;-41
2022/03/06 08:42:09;;;;;;;;;;;1.70;99.90;;;0.11;86.65;102143.34;2566713;30;137059;-41
2022/03/06 08:44:36;;;;;;;;;;;1.70;99.90;;;0.10;85.01;102138.06;2569256;30;136720;-41
2022/03/06 08:47:04;;;;;;;;;;;1.70;99.90;;;0.30;85.88;102150.06;2568292;30;136814;-42
2022/03/06 08:49:31;;;;;;;;;;;1.90;99.90;;;0.38;86.66;102153.03;2568242;30;137165;-42
2022/03/06 08:51:59;;;;;;;;;;;1.90;99.90;;;0.50;85.96;102155.78;2568874;30;138263;-41
2022/03/06 08:54:26;;;;;;;;;;;2.00;99.90;;;0.60;84.13;102167.56;2569380;30;137132;-41
2022/03/06 08:56:54;;;;;;;;;;;2.10;99.90;;;0.61;85.58;102153.16;2569343;30;139026;-41
2022/03/06 08:59:21;;;;;;;;;;;2.20;99.90;;;0.72;84.06;102168.50;2567357;30;137134;-42
2022/03/06 09:01:48;;;;;;;;;;;2.30;99.90;;;0.83;83.85;102165.00;2566678;30;138592;-41
2022/03/06 09:04:16;;;;;;;;;;;2.30;99.90;;;0.84;82.91;102166.72;2570370;30;136980;-42
2022/03/06 09:06:43;;;;;;;;;;;2.40;99.90;;;0.86;82.39;102162.09;2568499;30;138369;-41
2022/03/06 09:09:11;;;;;;;;;;;2.50;99.90;;;0.96;83.15;102156.88;2565673;30;136782;-42
2022/03/06 09:11:38;;;;;;;;;;;2.50;99.90;;;1.00;82.22;102164.56;2568473;30;138678;-41
2022/03/06 09:14:07;;;;;;;;;;;2.60;99.90;;;1.08;82.04;102161.31;2567605;30;136643;-41
2022/03/06 09:16:34;;;;;;;;;;;2.60;99.90;;;1.28;82.57;102167.81;2567929;30;137385;-41
2022/03/06 09:19:02;;;;;;;;;;;2.80;99.90;;;1.42;83.33;102166.75;2569067;30;137130;-41
2022/03/06 09:21:29;;;;;;;;;;;2.90;99.90;;;1.55;81.09;102171.19;2568345;30;138176;-41
2022/03/06 09:23:57;;;;;;;;;;;3.00;99.90;;;1.50;79.50;102163.47;2568908;30;137223;-41
2022/03/06 09:26:24;;;;;;;;;;;3.10;99.90;;;1.63;79.59;102163.38;2569516;30;138377;-41
2022/03/06 09:28:52;;;;;;;;;;;3.10;99.90;;;1.74;79.63;102172.47;2566014;30;136738;-41
2022/03/06 09:31:19;;;;;;;;;;;3.20;99.90;;;1.73;77.45;102163.50;2568891;30;138998;-42
2022/03/06 09:33:46;;;;;;;;;;;3.30;99.90;;;1.83;76.97;102164.47;2567963;30;137061;-39
2022/03/06 09:36:35;;;;;;;;;;;3.30;99.90;;;1.84;76.40;102171.56;2568359;30;138664;-41
2022/03/06 09:39:04;;;;;;;;;;;3.40;99.90;;;1.86;75.92;102169.66;2567632;30;136935;-41
2022/03/06 09:41:37;;;;;;;;;;;3.40;99.90;;;2.00;77.06;102167.69;2568304;30;137252;-41
2022/03/06 09:44:10;;;;;;;;;;;3.50;99.90;;;1.99;76.38;102168.66;2566684;30;137425;-41
2022/03/06 09:46:39;;;;;;;;;;;3.50;99.90;;;2.09;77.15;102164.22;2568881;30;139018;-41
2022/03/06 09:49:07;;;;;;;;;;;3.60;99.90;;;2.03;74.74;102162.03;2567923;30;136979;-41
2022/03/06 09:51:40;;;;;;;;;;;3.60;99.90;;;2.11;75.56;102164.97;2566573;30;138376;-41
2022/03/06 09:54:10;;;;;;;;;;;3.60;99.90;;;2.24;73.68;102162.13;2568522;30;137804;-41
2022/03/06 09:56:38;;;;;;;;;;;3.80;99.90;;;2.38;74.52;102166.38;2568890;30;137443;-41
2022/03/06 09:59:06;;;;;;;;;;;3.80;99.90;;;2.47;74.08;102172.03;2568620;30;138122;-41
2022/03/06 10:01:33;;;;;;;;;;;3.90;99.90;;;2.49;71.97;102172.75;2567901;30;137287;-41
2022/03/06 10:04:37;;;;;;;;;;;4.00;99.90;;;2.56;73.43;102168.56;2567656;30;136719;-41
2022/03/06 10:07:10;;;;;;;;;;;4.10;99.90;;;2.66;72.89;102172.22;2569053;30;137079;-42
2022/03/06 10:09:47;;;;;;;;;;;4.10;99.90;;;2.92;73.73;102168.34;2567655;30;137267;-41
2022/03/06 10:12:19;;;;;;;;;;;4.30;99.90;;;3.03;70.41;102173.66;2567328;30;137056;-41
2022/03/06 10:14:48;;;;;;;;;;;4.50;99.90;;;3.05;69.04;102174.41;2567920;30;137939;-41
2022/03/06 10:17:18;;;;;;;;;;;4.60;99.90;;;3.31;71.59;102174.00;2567565;30;138163;-41
2022/03/06 10:19:56;;;;;;;;;;;4.70;99.90;;;3.49;68.07;102176.13;2567895;30;137754;-41
2022/03/06 10:22:29;;;;;;;;;;;4.80;99.90;;;3.48;68.19;102175.28;2568282;30;138275;-41
2022/03/06 10:25:06;;;;;;;;;;;4.90;99.90;;;3.51;68.07;102172.31;2568654;30;136602;-41
2022/03/06 10:27:54;;;;;;;;;;;5.00;99.90;;;3.60;66.50;102182.31;2569157;30;138225;-41
2022/03/06 10:30:27;;;;;;;;;;;5.10;99.90;;;3.65;66.70;102176.50;2566762;30;137077;-42
2022/03/06 10:33:18;;;;;;;;;;;5.20;99.90;;;3.61;67.89;102164.28;2567207;30;139532;-42
2022/03/06 10:35:49;;;;;;;;;;;5.20;99.90;;;3.59;67.70;102171.66;2567257;30;137512;-41
2022/03/06 10:38:27;;;;;;;;;;;5.10;99.90;;;3.66;66.24;102172.81;2567347;30;138329;-42
2022/03/06 10:40:57;;;;;;;;;;;5.20;99.90;;;3.88;68.31;102166.38;2568190;30;136759;-41
2022/03/06 10:43:25;;;;;;;;;;;5.30;99.90;;;3.98;64.00;102165.59;2568244;30;138138;-42
2022/03/06 10:46:13;;;;;;;;;;;5.40;99.90;;;4.09;64.98;102170.88;2568135;30;137341;-41
2022/03/06 10:48:44;;;;;;;;;;;5.50;99.90;;;4.29;65.07;102163.69;2568974;30;138341;-39
2022/03/06 10:51:13;;;;;;;;;;;5.70;99.90;;;4.46;64.57;102169.44;2567381;30;137170;-39
2022/03/06 10:53:40;;;;;;;;;;;5.80;99.90;;;4.45;61.52;102173.97;2568068;30;138564;-41
2022/03/06 10:56:13;;;;;;;;;;;5.90;99.90;;;4.59;61.90;102169.16;2566533;30;137485;-41
2022/03/06 10:58:42;;;;;;;;;;;6.00;99.90;;;4.69;60.00;102164.63;2568567;30;139480;-41
2022/03/06 11:01:28;;;;;;;;;;;6.10;99.90;;;4.66;57.19;102162.19;2567583;30;136943;-42
2022/03/06 11:04:01;;;;;;;;;;;6.10;99.20;;;4.69;57.02;102159.22;2566448;30;137399;-42
2022/03/06 11:06:32;;;;;;;;;;;6.10;98.70;;;4.90;60.27;102155.53;2565436;30;138156;-41
2022/03/06 11:08:59;;;;;;;;;;;6.30;99.90;;;4.95;59.36;102166.78;2567356;30;139249;-41
2022/03/06 11:11:27;;;;;;;;;;;6.40;99.90;;;5.03;58.93;102161.50;2568168;30;137481;-42
2022/03/06 11:13:55;;;;;;;;;;;6.40;99.90;;;5.04;57.47;102163.22;2568932;30;137511;-41